Darstellungsparameter: Aktuell verwendete Einstellungen:
Skalierung der Graphiken ... ?
xyx+y,   Skalierungsfaktor:      Skalierung: Modus: x, Faktor: 1
Darstellungszeitraum ... ?
Vom - - bis: - -   Zeitraum: 30.11.2020 - 30.11.2020
Min/Max/Avg-Anzeige ... ?
Zeige MMA aktuell
Zeige MMA Monat
Zeige MMA alles
Zeige --A aktuell
Zeige --A Monat
Zeige --A alles
Keine MMA-Anzeige
MMA:
Average (ber die Originaldaten)
MMA-Basis: 30.11.2020 - 30.11.2020
Quicknavigation für Darstellung... ?
Tage:      1T, 2T, 3T, 5T -1T -2T -3T -5T +1T +2T +3T +5T
Wochen: 1W, 2W, 3W -1W -2W -3W +1W +2W +3W
Monate: 1M, 3M, 6M -1M -3M -6M +1M +3M +6M
Jahre:    1J, 3J, 5J, 10J -1J -3J -5J -10J +1J +3J +5J +10J
Nutze für die Darstellung ... ?
Originaldaten oder Mittelwerte auf ...
Stundenbasis Tagesbasis Wochenbasis
Monatsbasis Jahresbasis      Datenbasis: Original-Daten
Darstellen als:
Statistik (Auto) Statistik J:M      Darstellung:

Der gewünschte Datumsbereich war nicht gültig/verfügbar und wurde korrigiert....
Das angegebene Enddatum (15.05.2021 23:59:59) liegt in der Zukunft.
Das angegebene Startdatum (15.05.2021 00:00:00) liegt in der Zukunft.


Zur Graphik,    zurück zur Übersicht aller Sensoren.
 
Tabellarische Datenbersicht: ?
 
Sensor: Nr:Datum:Temp:Abs-Feuchte:Windchill:Wind:
Aussen-T/F 1 30-11-2020 01:00:00 -4.2 C 3.39 g/m*3 -4.2 C 0 km/h
2 30-11-2020 01:05:00 -4.2 C 3.39 g/m*3 -4.2 C 0 km/h
3 30-11-2020 01:10:00 -4.3 C 3.37 g/m*3 -4.3 C 0 km/h
4 30-11-2020 01:15:00 -4.3 C 3.37 g/m*3 -4.3 C 0 km/h
5 30-11-2020 01:20:00 -4.3 C 3.37 g/m*3 -4.3 C 0 km/h
6 30-11-2020 01:25:00 -4.3 C 3.37 g/m*3 -4.3 C 0 km/h
7 30-11-2020 01:30:00 -4.4 C 3.34 g/m*3 -4.4 C 0 km/h
8 30-11-2020 01:35:00 -4.4 C 3.34 g/m*3 -4.4 C 0 km/h
9 30-11-2020 01:40:00 -4.4 C 3.34 g/m*3 -4.4 C 0 km/h
10 30-11-2020 01:45:00 -4.4 C 3.34 g/m*3 -4.4 C 0 km/h
11 30-11-2020 01:50:00 -4.3 C 3.37 g/m*3 -4.3 C 0 km/h
12 30-11-2020 01:55:00 -4.2 C 3.39 g/m*3 -4.2 C 0 km/h
13 30-11-2020 02:00:00 -4.1 C 3.45 g/m*3 -4.1 C 0 km/h
14 30-11-2020 02:05:00 -4.2 C 3.43 g/m*3 -4.2 C 0 km/h
15 30-11-2020 02:10:00 -4.3 C 3.37 g/m*3 -4.3 C 0 km/h
16 30-11-2020 02:15:00 -4.4 C 3.34 g/m*3 -4.4 C 0 km/h
17 30-11-2020 02:20:00 -4.4 C 3.34 g/m*3 -4.4 C 0 km/h
18 30-11-2020 02:25:00 -4.6 C 3.29 g/m*3 -4.6 C 0 km/h
19 30-11-2020 02:30:00 -4.6 C 3.29 g/m*3 -4.6 C 0 km/h
20 30-11-2020 02:35:00 -4.7 C 3.27 g/m*3 -4.7 C 0 km/h
21 30-11-2020 02:40:00 -4.8 C 3.25 g/m*3 -4.8 C 0 km/h
22 30-11-2020 02:45:00 -4.8 C 3.25 g/m*3 -4.8 C 0 km/h
23 30-11-2020 02:50:00 -4.8 C 3.25 g/m*3 -4.8 C 0 km/h
24 30-11-2020 02:55:00 -4.9 C 3.22 g/m*3 -4.9 C 0 km/h
25 30-11-2020 03:00:00 -4.9 C 3.22 g/m*3 -4.9 C 0 km/h
Sensor: Nr:Datum:Temp:Abs-Feuchte:Windchill:Wind:
Aussen-T/F 26 30-11-2020 03:05:00 -4.9 C 3.22 g/m*3 -4.9 C 0 km/h
27 30-11-2020 03:10:00 -4.9 C 3.22 g/m*3 -4.9 C 0 km/h
28 30-11-2020 03:15:00 -4.9 C 3.22 g/m*3 -4.9 C 0 km/h
29 30-11-2020 03:20:00 -4.9 C 3.22 g/m*3 -4.9 C 0 km/h
30 30-11-2020 03:25:00 -4.8 C 3.25 g/m*3 -4.8 C 0 km/h
31 30-11-2020 03:30:00 -4.8 C 3.25 g/m*3 -4.8 C 0 km/h
32 30-11-2020 03:35:00 -4.8 C 3.25 g/m*3 -4.8 C 0 km/h
33 30-11-2020 03:40:00 -4.9 C 3.22 g/m*3 -4.9 C 0 km/h
34 30-11-2020 03:45:00 -4.9 C 3.22 g/m*3 -4.9 C 0 km/h
35 30-11-2020 03:50:00 -5 C 3.2 g/m*3 -5 C 0 km/h
36 30-11-2020 03:55:00 -5.1 C 3.18 g/m*3 -5.1 C 0 km/h
37 30-11-2020 04:00:00 -5.1 C 3.18 g/m*3 -5.1 C 0 km/h
38 30-11-2020 04:05:00 -5.2 C 3.15 g/m*3 -5.2 C 0 km/h
39 30-11-2020 04:10:00 -5.2 C 3.15 g/m*3 -5.2 C 0 km/h
40 30-11-2020 04:15:00 -5.2 C 3.15 g/m*3 -5.2 C 0 km/h
41 30-11-2020 04:20:00 -5.3 C 3.13 g/m*3 -5.3 C 0 km/h
42 30-11-2020 04:25:00 -5.3 C 3.13 g/m*3 -5.3 C 0 km/h
43 30-11-2020 04:30:00 -5.3 C 3.13 g/m*3 -5.3 C 0 km/h
44 30-11-2020 04:35:00 -5.3 C 3.13 g/m*3 -5.3 C 0 km/h
45 30-11-2020 04:40:00 -5.3 C 3.13 g/m*3 -5.3 C 0 km/h
46 30-11-2020 04:45:00 -5.3 C 3.13 g/m*3 -5.3 C 0 km/h
47 30-11-2020 04:50:00 -5.2 C 3.15 g/m*3 -5.2 C 0 km/h
48 30-11-2020 04:55:00 -5.2 C 3.15 g/m*3 -5.2 C 0 km/h
49 30-11-2020 05:00:00 -5.2 C 3.15 g/m*3 -5.2 C 0 km/h
50 30-11-2020 05:05:00 -5.3 C 3.13 g/m*3 -5.3 C 0 km/h
Sensor: Nr:Datum:Temp:Abs-Feuchte:Windchill:Wind:
Aussen-T/F 51 30-11-2020 05:10:00 -5.3 C 3.13 g/m*3 -5.3 C 0 km/h
52 30-11-2020 05:15:00 -5.4 C 3.11 g/m*3 -5.4 C 0 km/h
53 30-11-2020 05:20:00 -5.4 C 3.11 g/m*3 -5.4 C 0 km/h
54 30-11-2020 05:25:00 -5.5 C 3.09 g/m*3 -5.5 C 0 km/h
55 30-11-2020 05:30:00 -5.6 C 3.06 g/m*3 -5.6 C 0 km/h
56 30-11-2020 05:35:00 -5.5 C 3.09 g/m*3 -5.5 C 0 km/h
57 30-11-2020 05:40:00 -5.4 C 3.11 g/m*3 -5.4 C 0 km/h
58 30-11-2020 05:45:00 -5.3 C 3.17 g/m*3 -5.3 C 0 km/h
59 30-11-2020 05:50:00 -5.2 C 3.19 g/m*3 -5.2 C 0 km/h
60 30-11-2020 05:55:00 -5.2 C 3.19 g/m*3 -5.2 C 0 km/h
61 30-11-2020 06:00:00 -5.2 C 3.19 g/m*3 -5.2 C 0 km/h
62 30-11-2020 06:05:00 -5.2 C 3.19 g/m*3 -5.2 C 0 km/h
63 30-11-2020 06:10:00 -5.1 C 3.21 g/m*3 -5.1 C 0 km/h
64 30-11-2020 06:15:00 -5.1 C 3.21 g/m*3 -5.1 C 0 km/h
65 30-11-2020 06:20:00 -5.1 C 3.21 g/m*3 -5.1 C 0 km/h
66 30-11-2020 06:25:00 -5.1 C 3.21 g/m*3 -5.1 C 0 km/h
67 30-11-2020 06:30:00 -5.2 C 3.15 g/m*3 -5.2 C 0 km/h
68 30-11-2020 06:35:00 -5.3 C 3.13 g/m*3 -5.3 C 0 km/h
69 30-11-2020 06:40:00 -5.4 C 3.11 g/m*3 -5.4 C 0 km/h
70 30-11-2020 06:45:00 -5.4 C 3.11 g/m*3 -5.4 C 3.2 km/h
71 30-11-2020 06:50:00 -5.3 C 3.17 g/m*3 -5.3 C 0 km/h
72 30-11-2020 06:55:00 -5.2 C 3.19 g/m*3 -5.2 C 0 km/h
73 30-11-2020 07:00:00 -5.1 C 3.21 g/m*3 -5.1 C 0 km/h
74 30-11-2020 07:05:00 -5.1 C 3.21 g/m*3 -5.1 C 0 km/h
75 30-11-2020 07:10:00 -5 C 3.23 g/m*3 -5 C 0 km/h
Sensor: Nr:Datum:Temp:Abs-Feuchte:Windchill:Wind:
Aussen-T/F 76 30-11-2020 07:15:00 -4.9 C 3.26 g/m*3 -4.9 C 1.6 km/h
77 30-11-2020 07:20:00 -4.9 C 3.26 g/m*3 -4.9 C 0 km/h
78 30-11-2020 07:25:00 -4.9 C 3.26 g/m*3 -4.9 C 0 km/h
79 30-11-2020 07:30:00 -5 C 3.23 g/m*3 -5 C 0 km/h
80 30-11-2020 07:35:00 -5.1 C 3.21 g/m*3 -5.1 C 0 km/h
81 30-11-2020 07:40:00 -5.2 C 3.15 g/m*3 -5.2 C 0 km/h
82 30-11-2020 07:45:00 -5.3 C 3.13 g/m*3 -5.3 C 0 km/h
83 30-11-2020 07:50:00 -5.4 C 3.11 g/m*3 -5.4 C 0 km/h
84 30-11-2020 07:55:00 -5.6 C 3.06 g/m*3 -5.6 C 0 km/h
85 30-11-2020 08:00:00 -5.7 C 3.04 g/m*3 -5.7 C 1.6 km/h
86 30-11-2020 08:05:00 -5.8 C 3.02 g/m*3 -5.8 C 0 km/h
87 30-11-2020 08:10:00 -5.8 C 3.02 g/m*3 -5.8 C 1.6 km/h
88 30-11-2020 08:15:00 -5.8 C 3.02 g/m*3 -5.8 C 0 km/h
89 30-11-2020 08:20:00 -5.8 C 3.02 g/m*3 -5.8 C 0 km/h
90 30-11-2020 08:25:00 -5.7 C 3.04 g/m*3 -5.7 C 1.6 km/h
91 30-11-2020 08:30:00 -5.7 C 3.04 g/m*3 -5.7 C 0 km/h
92 30-11-2020 08:35:00 -5.7 C 3.04 g/m*3 -5.7 C 0 km/h
93 30-11-2020 08:40:00 -5.8 C 3.02 g/m*3 -5.8 C 0 km/h
94 30-11-2020 08:45:00 -5.8 C 3.02 g/m*3 -5.8 C 0 km/h
95 30-11-2020 08:50:00 -5.8 C 3.02 g/m*3 -5.8 C 0 km/h
96 30-11-2020 08:55:00 -5.8 C 3.02 g/m*3 -5.8 C 0 km/h
97 30-11-2020 09:00:00 -5.8 C 3.02 g/m*3 -5.8 C 0 km/h
98 30-11-2020 09:05:00 -5.7 C 3.07 g/m*3 -5.7 C 0 km/h
99 30-11-2020 09:10:00 -5.6 C 3.1 g/m*3 -5.6 C 1.6 km/h
100 30-11-2020 09:15:00 -5.5 C 3.12 g/m*3 -5.5 C 0 km/h
Sensor: Nr:Datum:Temp:Abs-Feuchte:Windchill:Wind:
Aussen-T/F 101 30-11-2020 09:20:00 -5.4 C 3.11 g/m*3 -5.4 C 0 km/h
102 30-11-2020 09:25:00 -5.4 C 3.11 g/m*3 -5.4 C 0 km/h
103 30-11-2020 09:30:00 -5.4 C 3.11 g/m*3 -5.4 C 0 km/h
104 30-11-2020 09:35:00 -5.4 C 3.14 g/m*3 -5.4 C 0 km/h
105 30-11-2020 09:40:00 -5.4 C 3.14 g/m*3 -5.4 C 0 km/h
106 30-11-2020 09:45:00 -5.3 C 3.17 g/m*3 -5.3 C 0 km/h
107 30-11-2020 09:50:00 -5.3 C 3.17 g/m*3 -5.3 C 0 km/h
108 30-11-2020 09:55:00 -5.3 C 3.17 g/m*3 -5.3 C 0 km/h
109 30-11-2020 10:00:00 -5.2 C 3.19 g/m*3 -5.2 C 0 km/h
110 30-11-2020 10:05:00 -5.2 C 3.19 g/m*3 -5.2 C 0 km/h
111 30-11-2020 10:10:00 -5.1 C 3.21 g/m*3 -5.1 C 1.6 km/h
112 30-11-2020 10:15:00 -5.1 C 3.21 g/m*3 -5.1 C 0 km/h
113 30-11-2020 10:20:00 -5 C 3.23 g/m*3 -5 C 3.2 km/h
114 30-11-2020 10:25:00 -4.9 C 3.26 g/m*3 -4.9 C 1.6 km/h
115 30-11-2020 10:30:00 -4.8 C 3.28 g/m*3 -4.8 C 0 km/h
116 30-11-2020 10:35:00 -4.7 C 3.31 g/m*3 -4.7 C 0 km/h
117 30-11-2020 10:40:00 -4.6 C 3.33 g/m*3 -4.6 C 0 km/h
118 30-11-2020 10:45:00 -4.5 C 3.35 g/m*3 -4.5 C 0 km/h
119 30-11-2020 10:50:00 -4.4 C 3.38 g/m*3 -4.4 C 0 km/h
120 30-11-2020 10:55:00 -4.3 C 3.4 g/m*3 -4.3 C 0 km/h
121 30-11-2020 11:00:00 -4.3 C 3.4 g/m*3 -4.3 C 1.6 km/h
122 30-11-2020 11:05:00 -4.2 C 3.43 g/m*3 -4.2 C 0 km/h
123 30-11-2020 11:10:00 -4.1 C 3.45 g/m*3 -4.1 C 0 km/h
124 30-11-2020 11:15:00 -3.9 C 3.5 g/m*3 -3.9 C 0 km/h

Legende:
   Min
   Max


Maximal/Minimal-Werte vom 30.11.2020 - 30.11.2020

Sensor Min Max Avg
Temp
(Aussen-T/F)
-5.8 °C
30-11-2020  08:05:00
-3.9 °C
30-11-2020  11:15:00
-5.04 °C
Abs-Feuchte
(Aussen-T/F)
3.02 g/m*3
30-11-2020  08:05:00
3.5 g/m*3
30-11-2020  11:15:00
3.18 g/m*3
Windchill
(Aussen-T/F)
-5.8 C
30-11-2020  08:05:00
-3.9 C
30-11-2020  11:15:00
-5 C

Die Daten stammen von einer Davis Vantage Pro 2 Wetter-Station und werden unter Linux mit der Software wview2wettercgi und aufbereitet. Alle Angaben erfolgen ohne Gewähr für ihre Vollständigkeit oder Richtigkeit.
Kontakt: Rainer Krienke krienke@uni-koblenz.de . Meine Webseiten an der Uni Koblenz oder privat.
Version: $Revision: 0.78 $